Nearby METAR Reports

 

KCPC - Whiteville, North Carolina, USA
Distance from station: NNE 17mi, 28km
Updated: 11/21/2017 4:25am
Clear
Clear
 Wind from calm
Wind: Calm
Temperature: 34°F , 1°C
Dew Point: 34°F , 1°C
Humidity: 100%
Barometer: 30.23 inHg , 1023.7 hPa
Clouds: Clear
Visibility: 10 miles , 16 km
2017/11/21 09:25 KCPC 210925Z AUTO 00000KT 10SM CLR 01/01 A3023 RMK AO2 T00120006
KCRE - North Myrtle Bea, South Carolina, USA
Distance from station: SSE 19mi, 31km
Updated: 11/21/2017 3:53am
Clear
Clear
 Wind from N
Wind: N 3 mph , 6 km/h
Temperature: 39°F , 4°C
Dew Point: 39°F , 4°C
Humidity: 100%
Barometer: 30.21 inHg , 1023 hPa
Clouds: Clear
Visibility: 10 miles , 16 km
2017/11/21 08:53 KCRE 210853Z AUTO 01003KT 10SM CLR 04/04 A3021 RMK AO1 SLP230 T00440039 56013
 
KHYW - Conway-Horry Cty, South Carolina, USA
Distance from station: SW 22mi, 35km
Updated: 11/21/2017 4:35am
Clear
Clear
 Wind from calm
Wind: Calm
Temperature: 34°F , 1°C
Dew Point: 34°F , 1°C
Humidity: 100%
Barometer: 30.22 inHg , 1023.4 hPa
Clouds: Clear
Visibility: 7 miles , 11 km
2017/11/21 09:35 KHYW 210935Z AUTO 00000KT 7SM CLR 01/01 A3022 RMK AO2
KMAO - Marion, South Carolina, USA
Distance from station: WNW 28mi, 45km
Updated: 11/21/2017 4:35am
Clear
Clear
 Wind from calm
Wind: Calm
Temperature: 32°F , 0°C
Dew Point: 32°F , 0°C
Humidity: 100%
Barometer: 30.24 inHg , 1024 hPa
Clouds: Clear
Visibility: 10 miles , 16 km
2017/11/21 09:35 KMAO 210935Z AUTO 00000KT 10SM CLR 00/00 A3024 RMK AO2
 
KMYR - Myrtle Beach, South Carolina, USA
Distance from station: S 28mi, 45km
Updated: 11/21/2017 3:56am
Clear
Clear
 Wind from N
Wind: N 5 mph , 7 km/h
Temperature: 41°F , 5°C
Wind Chill: 38°F , 3°C
Dew Point: 39°F , 4°C
Humidity: 93%
Barometer: 30.22 inHg , 1023.4 hPa
Clouds: Clear
Visibility: 10 miles , 16 km
2017/11/21 08:56 KMYR 210856Z AUTO 36004KT 10SM CLR 05/04 A3022 RMK AO2 SLP234 T00500039 56010
KLBT - Lumberton, North Carolina, USA
Distance from station: NNW 39mi, 62km
Updated: 11/21/2017 3:54am
Clear
Clear
 Wind from calm
Wind: Calm
Temperature: 30°F , -1°C
Dew Point: 28°F , -2°C
Humidity: 93%
Barometer: 30.24 inHg , 1024 hPa
Clouds: Clear
Visibility: 10 miles , 16 km
2017/11/21 08:54 KLBT 210854Z AUTO 00000KT 10SM CLR M01/M02 A3024 RMK AO2 SLP241 T10111017 58003
 
KSUT - Southport, North Carolina, USA
Distance from station: E 46mi, 74km
Updated: 11/21/2017 4:25am
Clear
Clear
 Wind from calm
Wind: Calm
Temperature: 41°F , 5°C
Dew Point: 39°F , 4°C
Humidity: 93%
Barometer: 30.22 inHg , 1023.4 hPa
Clouds: Clear
Visibility: 10 miles , 16 km
2017/11/21 09:25 KSUT 210925Z AUTO 00000KT 10SM CLR 05/04 A3022 RMK AO2 T00530036
KFLO - Florence, South Carolina, USA
Distance from station: W 50mi, 81km
Updated: 11/21/2017 3:53am
Clear
Clear
 Wind from N
Wind: N 5 mph , 7 km/h
Temperature: 36°F , 2°C
Wind Chill: 32°F , 0°C
Dew Point: 32°F , 0°C
Humidity: 87%
Barometer: 30.23 inHg , 1023.7 hPa
Clouds: Clear
Visibility: 10 miles , 16 km
2017/11/21 08:53 KFLO 210853Z AUTO 01004KT 10SM CLR 02/00 A3023 RMK AO2 SLP237 T00170000 58006 $